sensor_id;sensor_type;location;lat;lon;timestamp;temperature;humidity
21167;DHT22;10741;52.272;9.580;2023-08-07T00:01:27;15.40;99.90
21167;DHT22;10741;52.272;9.580;2023-08-07T00:03:52;15.40;99.90
21167;DHT22;10741;52.272;9.580;2023-08-07T00:06:18;15.40;99.90
21167;DHT22;10741;52.272;9.580;2023-08-07T00:08:44;15.40;99.90
21167;DHT22;10741;52.272;9.580;2023-08-07T00:11:10;15.40;99.90
21167;DHT22;10741;52.272;9.580;2023-08-07T00:13:36;15.30;99.90
21167;DHT22;10741;52.272;9.580;2023-08-07T00:16:02;15.40;99.90
21167;DHT22;10741;52.272;9.580;2023-08-07T00:18:29;15.30;99.90
21167;DHT22;10741;52.272;9.580;2023-08-07T00:20:54;15.40;99.90
21167;DHT22;10741;52.272;9.580;2023-08-07T00:23:20;15.40;99.90
21167;DHT22;10741;52.272;9.580;2023-08-07T00:25:46;15.40;99.90
21167;DHT22;10741;52.272;9.580;2023-08-07T00:28:12;15.40;99.90
21167;DHT22;10741;52.272;9.580;2023-08-07T00:30:37;15.40;99.90
21167;DHT22;10741;52.272;9.580;2023-08-07T00:33:03;15.40;99.90
21167;DHT22;10741;52.272;9.580;2023-08-07T00:35:29;15.30;99.90
21167;DHT22;10741;52.272;9.580;2023-08-07T00:37:54;15.40;99.90
21167;DHT22;10741;52.272;9.580;2023-08-07T00:40:20;15.40;99.90
21167;DHT22;10741;52.272;9.580;2023-08-07T00:42:46;15.30;99.90
21167;DHT22;10741;52.272;9.580;2023-08-07T00:45:12;15.40;99.90
21167;DHT22;10741;52.272;9.580;2023-08-07T00:47:38;15.30;99.90
21167;DHT22;10741;52.272;9.580;2023-08-07T00:50:04;15.40;99.90
21167;DHT22;10741;52.272;9.580;2023-08-07T00:52:31;15.40;99.90
21167;DHT22;10741;52.272;9.580;2023-08-07T00:54:57;15.40;99.90
21167;DHT22;10741;52.272;9.580;2023-08-07T00:57:25;15.30;99.90
21167;DHT22;10741;52.272;9.580;2023-08-07T00:59:52;15.30;99.90
21167;DHT22;10741;52.272;9.580;2023-08-07T01:02:18;15.30;99.90
21167;DHT22;10741;52.272;9.580;2023-08-07T01:04:44;15.30;99.90
21167;DHT22;10741;52.272;9.580;2023-08-07T01:07:10;15.30;99.90
21167;DHT22;10741;52.272;9.580;2023-08-07T01:09:36;15.30;99.90
21167;DHT22;10741;52.272;9.580;2023-08-07T01:17:17;15.30;99.90
21167;DHT22;10741;52.272;9.580;2023-08-07T01:19:45;15.30;99.90
21167;DHT22;10741;52.272;9.580;2023-08-07T01:22:12;15.20;99.90
21167;DHT22;10741;52.272;9.580;2023-08-07T01:24:40;15.20;99.90
21167;DHT22;10741;52.272;9.580;2023-08-07T01:27:35;15.20;99.90
21167;DHT22;10741;52.272;9.580;2023-08-07T01:30:18;15.20;99.90
21167;DHT22;10741;52.272;9.580;2023-08-07T01:35:29;15.10;99.90
21167;DHT22;10741;52.272;9.580;2023-08-07T01:37:56;15.10;99.90
21167;DHT22;10741;52.272;9.580;2023-08-07T01:40:23;15.10;99.90
21167;DHT22;10741;52.272;9.580;2023-08-07T01:42:49;15.10;99.90
21167;DHT22;10741;52.272;9.580;2023-08-07T01:45:23;15.00;99.90
21167;DHT22;10741;52.272;9.580;2023-08-07T01:47:49;15.00;99.90
21167;DHT22;10741;52.272;9.580;2023-08-07T01:50:15;15.00;99.90
21167;DHT22;10741;52.272;9.580;2023-08-07T01:52:40;15.00;99.90
21167;DHT22;10741;52.272;9.580;2023-08-07T01:55:07;15.00;99.90
21167;DHT22;10741;52.272;9.580;2023-08-07T01:57:33;15.00;99.90
21167;DHT22;10741;52.272;9.580;2023-08-07T01:59:59;15.00;99.90
21167;DHT22;10741;52.272;9.580;2023-08-07T02:02:24;15.00;99.90
21167;DHT22;10741;52.272;9.580;2023-08-07T02:04:50;15.00;99.90
21167;DHT22;10741;52.272;9.580;2023-08-07T02:07:16;15.00;99.90
21167;DHT22;10741;52.272;9.580;2023-08-07T02:09:41;15.00;99.90
21167;DHT22;10741;52.272;9.580;2023-08-07T02:12:07;15.00;99.90
21167;DHT22;10741;52.272;9.580;2023-08-07T02:14:33;15.00;99.90
21167;DHT22;10741;52.272;9.580;2023-08-07T02:16:59;15.00;99.90
21167;DHT22;10741;52.272;9.580;2023-08-07T02:19:25;14.90;99.90
21167;DHT22;10741;52.272;9.580;2023-08-07T02:21:50;15.00;99.90
21167;DHT22;10741;52.272;9.580;2023-08-07T02:24:16;14.90;99.90
21167;DHT22;10741;52.272;9.580;2023-08-07T02:26:43;14.90;99.90
21167;DHT22;10741;52.272;9.580;2023-08-07T02:29:09;14.90;99.90
21167;DHT22;10741;52.272;9.580;2023-08-07T02:31:35;14.90;99.90
21167;DHT22;10741;52.272;9.580;2023-08-07T02:34:00;14.90;99.90
21167;DHT22;10741;52.272;9.580;2023-08-07T02:36:26;14.80;99.90
21167;DHT22;10741;52.272;9.580;2023-08-07T02:38:52;14.80;99.90
21167;DHT22;10741;52.272;9.580;2023-08-07T02:41:18;14.80;99.90
21167;DHT22;10741;52.272;9.580;2023-08-07T02:43:43;14.80;99.90
21167;DHT22;10741;52.272;9.580;2023-08-07T02:46:09;14.80;99.90
21167;DHT22;10741;52.272;9.580;2023-08-07T02:48:35;14.80;99.90
21167;DHT22;10741;52.272;9.580;2023-08-07T02:51:00;14.80;99.90
21167;DHT22;10741;52.272;9.580;2023-08-07T02:53:26;14.80;99.90
21167;DHT22;10741;52.272;9.580;2023-08-07T02:55:52;14.80;99.90
21167;DHT22;10741;52.272;9.580;2023-08-07T02:58:18;14.80;99.90
21167;DHT22;10741;52.272;9.580;2023-08-07T03:00:43;14.80;99.90
21167;DHT22;10741;52.272;9.580;2023-08-07T03:03:09;14.70;99.90
21167;DHT22;10741;52.272;9.580;2023-08-07T03:05:35;14.70;99.90
21167;DHT22;10741;52.272;9.580;2023-08-07T03:08:00;14.70;99.90
21167;DHT22;10741;52.272;9.580;2023-08-07T03:10:26;14.70;99.90
21167;DHT22;10741;52.272;9.580;2023-08-07T03:12:52;14.70;99.90
21167;DHT22;10741;52.272;9.580;2023-08-07T03:15:18;14.80;99.90
21167;DHT22;10741;52.272;9.580;2023-08-07T03:17:43;14.80;99.90
21167;DHT22;10741;52.272;9.580;2023-08-07T03:20:10;14.80;99.90
21167;DHT22;10741;52.272;9.580;2023-08-07T03:22:36;14.80;99.90
21167;DHT22;10741;52.272;9.580;2023-08-07T03:25:02;14.80;99.90
21167;DHT22;10741;52.272;9.580;2023-08-07T03:27:28;14.80;99.90
21167;DHT22;10741;52.272;9.580;2023-08-07T03:29:54;14.80;99.90
21167;DHT22;10741;52.272;9.580;2023-08-07T03:32:19;14.80;99.90
21167;DHT22;10741;52.272;9.580;2023-08-07T03:34:45;14.80;99.90
21167;DHT22;10741;52.272;9.580;2023-08-07T03:37:11;14.80;99.90
21167;DHT22;10741;52.272;9.580;2023-08-07T03:39:37;14.70;99.90
21167;DHT22;10741;52.272;9.580;2023-08-07T03:42:02;14.80;99.90
21167;DHT22;10741;52.272;9.580;2023-08-07T03:44:28;14.80;99.90
21167;DHT22;10741;52.272;9.580;2023-08-07T03:46:54;14.70;99.90
21167;DHT22;10741;52.272;9.580;2023-08-07T03:49:22;14.70;99.90
21167;DHT22;10741;52.272;9.580;2023-08-07T03:51:48;14.70;99.90
21167;DHT22;10741;52.272;9.580;2023-08-07T03:54:14;14.80;99.90
21167;DHT22;10741;52.272;9.580;2023-08-07T03:56:40;14.80;99.90
21167;DHT22;10741;52.272;9.580;2023-08-07T03:59:06;14.80;99.90
21167;DHT22;10741;52.272;9.580;2023-08-07T04:01:32;14.80;99.90
21167;DHT22;10741;52.272;9.580;2023-08-07T04:03:58;14.80;99.90
21167;DHT22;10741;52.272;9.580;2023-08-07T04:06:23;14.80;99.90
21167;DHT22;10741;52.272;9.580;2023-08-07T04:08:49;14.80;99.90
21167;DHT22;10741;52.272;9.580;2023-08-07T04:11:16;14.80;99.90
21167;DHT22;10741;52.272;9.580;2023-08-07T04:13:42;14.80;99.90
21167;DHT22;10741;52.272;9.580;2023-08-07T04:16:08;14.80;99.90
21167;DHT22;10741;52.272;9.580;2023-08-07T04:18:33;14.80;99.90
21167;DHT22;10741;52.272;9.580;2023-08-07T04:20:59;14.80;99.90
21167;DHT22;10741;52.272;9.580;2023-08-07T04:23:25;14.80;99.90
21167;DHT22;10741;52.272;9.580;2023-08-07T04:25:52;14.80;99.90
21167;DHT22;10741;52.272;9.580;2023-08-07T04:28:18;14.80;99.90
21167;DHT22;10741;52.272;9.580;2023-08-07T04:30:45;14.80;99.90
21167;DHT22;10741;52.272;9.580;2023-08-07T04:33:14;14.80;99.90
21167;DHT22;10741;52.272;9.580;2023-08-07T04:35:39;14.90;99.90
21167;DHT22;10741;52.272;9.580;2023-08-07T04:38:05;14.90;99.90
21167;DHT22;10741;52.272;9.580;2023-08-07T04:40:31;14.90;99.90
21167;DHT22;10741;52.272;9.580;2023-08-07T04:42:57;14.90;99.90
21167;DHT22;10741;52.272;9.580;2023-08-07T04:45:22;14.90;99.90
21167;DHT22;10741;52.272;9.580;2023-08-07T04:47:48;14.90;99.90
21167;DHT22;10741;52.272;9.580;2023-08-07T04:50:14;14.90;99.90
21167;DHT22;10741;52.272;9.580;2023-08-07T04:52:40;14.90;99.90
21167;DHT22;10741;52.272;9.580;2023-08-07T04:55:06;14.80;99.90
21167;DHT22;10741;52.272;9.580;2023-08-07T04:57:32;14.80;99.90
21167;DHT22;10741;52.272;9.580;2023-08-07T04:59:57;14.80;99.90
21167;DHT22;10741;52.272;9.580;2023-08-07T05:02:23;14.80;99.90
21167;DHT22;10741;52.272;9.580;2023-08-07T05:04:49;14.80;99.90
21167;DHT22;10741;52.272;9.580;2023-08-07T05:07:14;14.80;99.90
21167;DHT22;10741;52.272;9.580;2023-08-07T05:09:40;14.80;99.90
21167;DHT22;10741;52.272;9.580;2023-08-07T05:12:07;14.80;99.90
21167;DHT22;10741;52.272;9.580;2023-08-07T05:14:32;14.80;99.90
21167;DHT22;10741;52.272;9.580;2023-08-07T05:16:59;14.80;99.90
21167;DHT22;10741;52.272;9.580;2023-08-07T05:19:27;14.90;99.90
21167;DHT22;10741;52.272;9.580;2023-08-07T05:21:53;14.90;99.90
21167;DHT22;10741;52.272;9.580;2023-08-07T05:24:18;15.00;99.90
21167;DHT22;10741;52.272;9.580;2023-08-07T05:26:44;15.00;99.90
21167;DHT22;10741;52.272;9.580;2023-08-07T05:29:10;15.00;99.90
21167;DHT22;10741;52.272;9.580;2023-08-07T05:31:36;15.10;99.90
21167;DHT22;10741;52.272;9.580;2023-08-07T05:34:02;15.20;99.90
21167;DHT22;10741;52.272;9.580;2023-08-07T05:36:28;15.20;99.90
21167;DHT22;10741;52.272;9.580;2023-08-07T05:38:57;15.20;99.90
21167;DHT22;10741;52.272;9.580;2023-08-07T05:41:22;15.10;99.90
21167;DHT22;10741;52.272;9.580;2023-08-07T05:43:48;15.20;99.90
21167;DHT22;10741;52.272;9.580;2023-08-07T05:46:14;15.20;99.90
21167;DHT22;10741;52.272;9.580;2023-08-07T05:48:40;15.20;99.90
21167;DHT22;10741;52.272;9.580;2023-08-07T05:51:06;15.30;99.90
21167;DHT22;10741;52.272;9.580;2023-08-07T05:53:34;15.30;99.90
21167;DHT22;10741;52.272;9.580;2023-08-07T05:56:03;15.30;99.90
21167;DHT22;10741;52.272;9.580;2023-08-07T05:58:29;15.40;99.90
21167;DHT22;10741;52.272;9.580;2023-08-07T06:00:55;15.50;99.90
21167;DHT22;10741;52.272;9.580;2023-08-07T06:03:21;15.50;99.90
21167;DHT22;10741;52.272;9.580;2023-08-07T06:05:46;15.50;99.90
21167;DHT22;10741;52.272;9.580;2023-08-07T06:08:12;15.60;99.90
21167;DHT22;10741;52.272;9.580;2023-08-07T06:10:38;15.60;99.90
21167;DHT22;10741;52.272;9.580;2023-08-07T06:13:03;15.50;99.90
21167;DHT22;10741;52.272;9.580;2023-08-07T06:15:32;15.50;99.90
21167;DHT22;10741;52.272;9.580;2023-08-07T06:17:58;15.50;99.90
21167;DHT22;10741;52.272;9.580;2023-08-07T06:20:24;15.50;99.90
21167;DHT22;10741;52.272;9.580;2023-08-07T06:22:50;15.50;99.90
21167;DHT22;10741;52.272;9.580;2023-08-07T06:25:16;15.50;99.90
21167;DHT22;10741;52.272;9.580;2023-08-07T06:27:41;15.50;99.90
21167;DHT22;10741;52.272;9.580;2023-08-07T06:30:08;15.60;99.90
21167;DHT22;10741;52.272;9.580;2023-08-07T06:32:33;15.60;99.90
21167;DHT22;10741;52.272;9.580;2023-08-07T06:34:59;15.60;99.90
21167;DHT22;10741;52.272;9.580;2023-08-07T06:37:25;15.60;99.90
21167;DHT22;10741;52.272;9.580;2023-08-07T06:39:51;15.60;99.90
21167;DHT22;10741;52.272;9.580;2023-08-07T06:42:16;15.60;99.90
21167;DHT22;10741;52.272;9.580;2023-08-07T06:44:42;15.60;99.90
21167;DHT22;10741;52.272;9.580;2023-08-07T06:47:08;15.70;99.90
21167;DHT22;10741;52.272;9.580;2023-08-07T06:49:34;15.70;99.90
21167;DHT22;10741;52.272;9.580;2023-08-07T06:52:00;15.80;99.90
21167;DHT22;10741;52.272;9.580;2023-08-07T06:54:26;15.90;99.90
21167;DHT22;10741;52.272;9.580;2023-08-07T06:56:52;16.00;99.90
21167;DHT22;10741;52.272;9.580;2023-08-07T06:59:17;16.00;99.90
21167;DHT22;10741;52.272;9.580;2023-08-07T07:01:43;16.00;99.90
21167;DHT22;10741;52.272;9.580;2023-08-07T07:04:09;16.00;99.90
21167;DHT22;10741;52.272;9.580;2023-08-07T07:06:36;15.90;99.90
21167;DHT22;10741;52.272;9.580;2023-08-07T07:09:02;15.90;99.90
21167;DHT22;10741;52.272;9.580;2023-08-07T07:11:28;15.90;99.90
21167;DHT22;10741;52.272;9.580;2023-08-07T07:13:53;15.80;99.90
21167;DHT22;10741;52.272;9.580;2023-08-07T07:16:20;15.80;99.90
21167;DHT22;10741;52.272;9.580;2023-08-07T07:18:52;15.80;99.90
21167;DHT22;10741;52.272;9.580;2023-08-07T07:21:18;15.70;99.90
21167;DHT22;10741;52.272;9.580;2023-08-07T07:23:44;15.80;99.90
21167;DHT22;10741;52.272;9.580;2023-08-07T07:26:10;15.90;99.90
21167;DHT22;10741;52.272;9.580;2023-08-07T07:28:35;15.80;99.90
21167;DHT22;10741;52.272;9.580;2023-08-07T07:31:01;15.70;99.90
21167;DHT22;10741;52.272;9.580;2023-08-07T07:33:29;15.70;99.90
21167;DHT22;10741;52.272;9.580;2023-08-07T07:42:23;15.60;99.90
21167;DHT22;10741;52.272;9.580;2023-08-07T07:44:49;15.70;99.90
21167;DHT22;10741;52.272;9.580;2023-08-07T07:47:15;15.70;99.90
21167;DHT22;10741;52.272;9.580;2023-08-07T07:49:45;15.80;99.90
21167;DHT22;10741;52.272;9.580;2023-08-07T07:52:15;15.80;99.90
21167;DHT22;10741;52.272;9.580;2023-08-07T08:01:45;16.50;99.90
21167;DHT22;10741;52.272;9.580;2023-08-07T08:15:27;16.80;99.90
21167;DHT22;10741;52.272;9.580;2023-08-07T08:17:53;16.60;99.90
21167;DHT22;10741;52.272;9.580;2023-08-07T08:20:19;16.40;99.90
21167;DHT22;10741;52.272;9.580;2023-08-07T08:22:45;16.20;99.90
21167;DHT22;10741;52.272;9.580;2023-08-07T08:25:12;16.10;99.90
21167;DHT22;10741;52.272;9.580;2023-08-07T08:27:39;16.10;99.90
21167;DHT22;10741;52.272;9.580;2023-08-07T08:30:06;16.10;99.90
21167;DHT22;10741;52.272;9.580;2023-08-07T08:32:32;16.00;99.90
21167;DHT22;10741;52.272;9.580;2023-08-07T08:34:58;15.80;99.90
21167;DHT22;10741;52.272;9.580;2023-08-07T08:37:24;15.70;99.90
21167;DHT22;10741;52.272;9.580;2023-08-07T08:39:50;15.60;99.90
21167;DHT22;10741;52.272;9.580;2023-08-07T08:42:16;15.40;99.90
21167;DHT22;10741;52.272;9.580;2023-08-07T08:44:52;15.40;99.90
21167;DHT22;10741;52.272;9.580;2023-08-07T08:47:18;15.60;99.90
21167;DHT22;10741;52.272;9.580;2023-08-07T08:50:04;16.30;99.90
21167;DHT22;10741;52.272;9.580;2023-08-07T08:52:33;16.80;99.90
21167;DHT22;10741;52.272;9.580;2023-08-07T08:55:01;17.40;99.90
21167;DHT22;10741;52.272;9.580;2023-08-07T08:57:27;18.00;99.90
21167;DHT22;10741;52.272;9.580;2023-08-07T08:59:53;18.50;99.90
21167;DHT22;10741;52.272;9.580;2023-08-07T09:02:20;18.30;99.90
21167;DHT22;10741;52.272;9.580;2023-08-07T09:04:46;17.90;99.90
21167;DHT22;10741;52.272;9.580;2023-08-07T09:07:14;17.60;99.90
21167;DHT22;10741;52.272;9.580;2023-08-07T09:09:40;17.20;99.90
21167;DHT22;10741;52.272;9.580;2023-08-07T09:12:09;17.00;99.90
21167;DHT22;10741;52.272;9.580;2023-08-07T09:14:39;16.70;99.90
21167;DHT22;10741;52.272;9.580;2023-08-07T09:17:07;16.50;99.90
21167;DHT22;10741;52.272;9.580;2023-08-07T09:19:33;16.50;99.90
21167;DHT22;10741;52.272;9.580;2023-08-07T09:21:59;16.50;99.90
21167;DHT22;10741;52.272;9.580;2023-08-07T09:24:25;16.60;99.90
21167;DHT22;10741;52.272;9.580;2023-08-07T09:26:51;16.90;99.90
21167;DHT22;10741;52.272;9.580;2023-08-07T09:29:19;17.60;99.90
21167;DHT22;10741;52.272;9.580;2023-08-07T09:31:45;18.20;99.90
21167;DHT22;10741;52.272;9.580;2023-08-07T09:34:11;18.40;99.90
21167;DHT22;10741;52.272;9.580;2023-08-07T09:36:41;18.70;99.90
21167;DHT22;10741;52.272;9.580;2023-08-07T09:39:07;19.20;99.90
21167;DHT22;10741;52.272;9.580;2023-08-07T09:41:36;19.70;99.90
21167;DHT22;10741;52.272;9.580;2023-08-07T09:44:06;19.70;99.90
21167;DHT22;10741;52.272;9.580;2023-08-07T09:46:41;19.60;99.90
21167;DHT22;10741;52.272;9.580;2023-08-07T09:49:08;19.20;99.90
21167;DHT22;10741;52.272;9.580;2023-08-07T09:51:52;18.80;99.90
21167;DHT22;10741;52.272;9.580;2023-08-07T09:54:18;18.20;99.90
21167;DHT22;10741;52.272;9.580;2023-08-07T09:56:43;17.80;99.90
21167;DHT22;10741;52.272;9.580;2023-08-07T09:59:13;17.20;99.90
21167;DHT22;10741;52.272;9.580;2023-08-07T10:01:38;16.70;99.90
21167;DHT22;10741;52.272;9.580;2023-08-07T10:04:06;16.30;99.90
21167;DHT22;10741;52.272;9.580;2023-08-07T10:06:33;16.00;99.90
21167;DHT22;10741;52.272;9.580;2023-08-07T10:08:59;15.90;99.90
21167;DHT22;10741;52.272;9.580;2023-08-07T10:11:26;16.00;99.90
21167;DHT22;10741;52.272;9.580;2023-08-07T10:13:53;16.10;99.90
21167;DHT22;10741;52.272;9.580;2023-08-07T10:16:20;16.20;99.90
21167;DHT22;10741;52.272;9.580;2023-08-07T10:18:46;16.30;99.90
21167;DHT22;10741;52.272;9.580;2023-08-07T10:21:12;16.40;99.90
21167;DHT22;10741;52.272;9.580;2023-08-07T10:23:38;16.50;99.90
21167;DHT22;10741;52.272;9.580;2023-08-07T10:26:06;16.60;99.90
21167;DHT22;10741;52.272;9.580;2023-08-07T10:28:37;16.80;99.90
21167;DHT22;10741;52.272;9.580;2023-08-07T10:31:06;17.20;99.90
21167;DHT22;10741;52.272;9.580;2023-08-07T10:33:33;17.20;99.90
21167;DHT22;10741;52.272;9.580;2023-08-07T10:35:58;16.90;99.90
21167;DHT22;10741;52.272;9.580;2023-08-07T10:38:25;16.80;99.90
21167;DHT22;10741;52.272;9.580;2023-08-07T10:41:12;16.80;99.90
21167;DHT22;10741;52.272;9.580;2023-08-07T10:43:42;16.80;99.90
21167;DHT22;10741;52.272;9.580;2023-08-07T10:46:47;16.70;99.90
21167;DHT22;10741;52.272;9.580;2023-08-07T10:49:36;16.70;99.90
21167;DHT22;10741;52.272;9.580;2023-08-07T10:52:11;16.80;99.90
21167;DHT22;10741;52.272;9.580;2023-08-07T10:54:39;16.90;99.90
21167;DHT22;10741;52.272;9.580;2023-08-07T10:57:11;16.90;99.90
21167;DHT22;10741;52.272;9.580;2023-08-07T10:59:38;16.80;99.90
21167;DHT22;10741;52.272;9.580;2023-08-07T11:02:08;16.80;99.90
21167;DHT22;10741;52.272;9.580;2023-08-07T11:04:37;16.70;99.90
21167;DHT22;10741;52.272;9.580;2023-08-07T11:07:03;16.80;99.90
21167;DHT22;10741;52.272;9.580;2023-08-07T11:09:29;16.80;99.90
21167;DHT22;10741;52.272;9.580;2023-08-07T11:11:54;16.80;99.90
21167;DHT22;10741;52.272;9.580;2023-08-07T11:14:20;17.10;99.90
21167;DHT22;10741;52.272;9.580;2023-08-07T11:16:48;17.50;99.90
21167;DHT22;10741;52.272;9.580;2023-08-07T11:19:16;17.70;99.90
21167;DHT22;10741;52.272;9.580;2023-08-07T11:21:42;18.00;99.90
21167;DHT22;10741;52.272;9.580;2023-08-07T11:24:08;18.20;99.90
21167;DHT22;10741;52.272;9.580;2023-08-07T11:26:34;18.30;99.90
21167;DHT22;10741;52.272;9.580;2023-08-07T11:28:59;18.60;99.90
21167;DHT22;10741;52.272;9.580;2023-08-07T11:31:26;18.90;99.90
21167;DHT22;10741;52.272;9.580;2023-08-07T11:33:56;19.00;99.90
21167;DHT22;10741;52.272;9.580;2023-08-07T11:36:23;19.20;99.90
21167;DHT22;10741;52.272;9.580;2023-08-07T11:38:50;19.40;99.90
21167;DHT22;10741;52.272;9.580;2023-08-07T11:41:17;19.80;99.90
21167;DHT22;10741;52.272;9.580;2023-08-07T11:43:43;19.60;99.90
21167;DHT22;10741;52.272;9.580;2023-08-07T11:46:12;19.00;99.90
21167;DHT22;10741;52.272;9.580;2023-08-07T11:48:39;18.30;99.90
21167;DHT22;10741;52.272;9.580;2023-08-07T11:51:06;17.80;99.90
21167;DHT22;10741;52.272;9.580;2023-08-07T11:53:40;17.60;99.90
21167;DHT22;10741;52.272;9.580;2023-08-07T11:56:11;17.70;99.90
21167;DHT22;10741;52.272;9.580;2023-08-07T11:58:43;18.20;99.90
21167;DHT22;10741;52.272;9.580;2023-08-07T12:06:19;19.40;99.90
21167;DHT22;10741;52.272;9.580;2023-08-07T12:08:45;19.50;99.90
21167;DHT22;10741;52.272;9.580;2023-08-07T12:11:12;19.70;99.90
21167;DHT22;10741;52.272;9.580;2023-08-07T12:13:43;19.80;99.90
21167;DHT22;10741;52.272;9.580;2023-08-07T12:16:11;19.70;99.90
21167;DHT22;10741;52.272;9.580;2023-08-07T12:18:47;19.80;99.90
21167;DHT22;10741;52.272;9.580;2023-08-07T12:21:15;19.90;99.90
21167;DHT22;10741;52.272;9.580;2023-08-07T12:23:44;19.50;99.90
21167;DHT22;10741;52.272;9.580;2023-08-07T12:26:10;18.80;99.90
21167;DHT22;10741;52.272;9.580;2023-08-07T12:28:36;18.20;99.90
21167;DHT22;10741;52.272;9.580;2023-08-07T12:31:02;17.40;99.90
21167;DHT22;10741;52.272;9.580;2023-08-07T12:33:31;17.00;99.90
21167;DHT22;10741;52.272;9.580;2023-08-07T12:35:58;16.80;99.90
21167;DHT22;10741;52.272;9.580;2023-08-07T12:38:24;16.80;99.90
21167;DHT22;10741;52.272;9.580;2023-08-07T12:40:51;16.70;99.90
21167;DHT22;10741;52.272;9.580;2023-08-07T12:43:17;16.40;99.90
21167;DHT22;10741;52.272;9.580;2023-08-07T12:45:42;17.50;99.90
21167;DHT22;10741;52.272;9.580;2023-08-07T12:48:08;18.10;99.90
21167;DHT22;10741;52.272;9.580;2023-08-07T12:50:35;18.40;99.90
21167;DHT22;10741;52.272;9.580;2023-08-07T12:53:01;18.90;99.90
21167;DHT22;10741;52.272;9.580;2023-08-07T12:55:27;19.30;99.90
21167;DHT22;10741;52.272;9.580;2023-08-07T12:57:54;19.60;99.90
21167;DHT22;10741;52.272;9.580;2023-08-07T13:00:20;19.90;99.90
21167;DHT22;10741;52.272;9.580;2023-08-07T13:02:48;20.10;99.90
21167;DHT22;10741;52.272;9.580;2023-08-07T13:05:15;20.40;99.90
21167;DHT22;10741;52.272;9.580;2023-08-07T13:07:42;20.40;99.90
21167;DHT22;10741;52.272;9.580;2023-08-07T13:10:11;20.50;99.90
21167;DHT22;10741;52.272;9.580;2023-08-07T13:12:39;20.40;99.90
21167;DHT22;10741;52.272;9.580;2023-08-07T13:15:06;20.40;99.90
21167;DHT22;10741;52.272;9.580;2023-08-07T13:17:36;19.60;99.90
21167;DHT22;10741;52.272;9.580;2023-08-07T13:20:03;19.60;99.90
21167;DHT22;10741;52.272;9.580;2023-08-07T13:22:37;19.30;99.90
21167;DHT22;10741;52.272;9.580;2023-08-07T13:25:03;19.10;99.90
21167;DHT22;10741;52.272;9.580;2023-08-07T13:27:30;18.90;99.90
21167;DHT22;10741;52.272;9.580;2023-08-07T13:29:56;18.60;99.90
21167;DHT22;10741;52.272;9.580;2023-08-07T13:32:22;18.50;99.90
21167;DHT22;10741;52.272;9.580;2023-08-07T13:34:48;18.40;99.90
21167;DHT22;10741;52.272;9.580;2023-08-07T13:37:14;18.40;99.90
21167;DHT22;10741;52.272;9.580;2023-08-07T13:39:42;18.30;99.90
21167;DHT22;10741;52.272;9.580;2023-08-07T13:42:08;18.10;99.90
21167;DHT22;10741;52.272;9.580;2023-08-07T13:44:39;17.80;99.90
21167;DHT22;10741;52.272;9.580;2023-08-07T13:47:05;17.60;99.90
21167;DHT22;10741;52.272;9.580;2023-08-07T13:49:32;17.50;99.90
21167;DHT22;10741;52.272;9.580;2023-08-07T13:51:58;17.40;99.90
21167;DHT22;10741;52.272;9.580;2023-08-07T13:54:24;17.70;99.90
21167;DHT22;10741;52.272;9.580;2023-08-07T13:56:49;17.80;99.90
21167;DHT22;10741;52.272;9.580;2023-08-07T13:59:18;18.00;99.90
21167;DHT22;10741;52.272;9.580;2023-08-07T14:01:44;18.00;99.90
21167;DHT22;10741;52.272;9.580;2023-08-07T14:04:10;18.20;99.90
21167;DHT22;10741;52.272;9.580;2023-08-07T14:06:35;18.20;99.90
21167;DHT22;10741;52.272;9.580;2023-08-07T14:09:02;18.20;99.90
21167;DHT22;10741;52.272;9.580;2023-08-07T14:11:29;18.10;99.90
21167;DHT22;10741;52.272;9.580;2023-08-07T14:13:57;18.00;99.90
21167;DHT22;10741;52.272;9.580;2023-08-07T14:16:23;18.00;99.90
21167;DHT22;10741;52.272;9.580;2023-08-07T14:18:49;17.90;99.90
21167;DHT22;10741;52.272;9.580;2023-08-07T14:21:15;18.10;99.90
21167;DHT22;10741;52.272;9.580;2023-08-07T14:23:41;18.30;99.90
21167;DHT22;10741;52.272;9.580;2023-08-07T14:26:08;18.40;99.90
21167;DHT22;10741;52.272;9.580;2023-08-07T14:28:33;18.50;99.90
21167;DHT22;10741;52.272;9.580;2023-08-07T14:30:59;18.60;99.90
21167;DHT22;10741;52.272;9.580;2023-08-07T14:33:27;18.70;99.90
21167;DHT22;10741;52.272;9.580;2023-08-07T14:35:56;18.50;99.90
21167;DHT22;10741;52.272;9.580;2023-08-07T14:38:22;18.50;99.90
21167;DHT22;10741;52.272;9.580;2023-08-07T14:40:48;18.60;99.90
21167;DHT22;10741;52.272;9.580;2023-08-07T14:43:13;18.70;99.90
21167;DHT22;10741;52.272;9.580;2023-08-07T14:45:40;18.70;99.90
21167;DHT22;10741;52.272;9.580;2023-08-07T14:48:05;18.60;99.90
21167;DHT22;10741;52.272;9.580;2023-08-07T14:50:32;18.60;99.90
21167;DHT22;10741;52.272;9.580;2023-08-07T14:52:58;18.60;99.90
21167;DHT22;10741;52.272;9.580;2023-08-07T14:55:24;18.50;99.90
21167;DHT22;10741;52.272;9.580;2023-08-07T14:57:50;18.50;99.90
21167;DHT22;10741;52.272;9.580;2023-08-07T15:00:16;18.60;99.90
21167;DHT22;10741;52.272;9.580;2023-08-07T15:02:42;18.60;99.90
21167;DHT22;10741;52.272;9.580;2023-08-07T15:05:08;18.70;99.90
21167;DHT22;10741;52.272;9.580;2023-08-07T15:07:34;18.60;99.90
21167;DHT22;10741;52.272;9.580;2023-08-07T15:09:59;18.50;99.90
21167;DHT22;10741;52.272;9.580;2023-08-07T15:12:25;18.40;99.90
21167;DHT22;10741;52.272;9.580;2023-08-07T15:14:51;18.50;99.90
21167;DHT22;10741;52.272;9.580;2023-08-07T15:17:17;18.60;99.90
21167;DHT22;10741;52.272;9.580;2023-08-07T15:19:43;18.50;99.90
21167;DHT22;10741;52.272;9.580;2023-08-07T15:22:08;18.30;99.90
21167;DHT22;10741;52.272;9.580;2023-08-07T15:24:34;18.20;99.90
21167;DHT22;10741;52.272;9.580;2023-08-07T15:27:00;18.10;99.90
21167;DHT22;10741;52.272;9.580;2023-08-07T15:29:26;18.00;99.90
21167;DHT22;10741;52.272;9.580;2023-08-07T15:31:51;18.00;99.90
21167;DHT22;10741;52.272;9.580;2023-08-07T15:34:20;17.90;99.90
21167;DHT22;10741;52.272;9.580;2023-08-07T15:36:46;17.90;99.90
21167;DHT22;10741;52.272;9.580;2023-08-07T15:39:12;17.70;99.90
21167;DHT22;10741;52.272;9.580;2023-08-07T15:41:38;17.70;99.90
21167;DHT22;10741;52.272;9.580;2023-08-07T15:44:08;17.60;99.90
21167;DHT22;10741;52.272;9.580;2023-08-07T15:46:34;17.50;99.90
21167;DHT22;10741;52.272;9.580;2023-08-07T15:49:00;17.40;99.90
21167;DHT22;10741;52.272;9.580;2023-08-07T15:51:25;17.30;99.90
21167;DHT22;10741;52.272;9.580;2023-08-07T15:53:51;17.30;99.90
21167;DHT22;10741;52.272;9.580;2023-08-07T15:56:17;17.40;99.90
21167;DHT22;10741;52.272;9.580;2023-08-07T15:58:43;17.50;99.90
21167;DHT22;10741;52.272;9.580;2023-08-07T16:01:09;17.40;99.90
21167;DHT22;10741;52.272;9.580;2023-08-07T16:03:36;17.50;99.90
21167;DHT22;10741;52.272;9.580;2023-08-07T16:06:02;17.60;99.90